Time;durP1;ratioP1;P1;durP2;ratioP2;P2;SDS_P1;SDS_P2;PMS_P1;PMS_P2;Temp;Humidity;BMP_temperature;BMP_pressure;BME280_temperature;BME280_humidity;BME280_pressure;Samples;Min_cycle;Max_cycle;Signal;HPM_P1;HPM_P2
2023/05/19 00:01:23;;;;;;;13.38;8.95;;;;;;;13.13;43.97;102603.03;5027238;28;124080;-69
2023/05/19 00:03:56;;;;;;;12.75;8.65;;;;;;;13.10;43.88;102597.81;4999314;28;123281;-70
2023/05/19 00:06:25;;;;;;;15.15;8.63;;;;;;;13.07;44.17;102595.22;5028991;28;114529;-70
2023/05/19 00:08:58;;;;;;;13.77;7.70;;;;;;;13.03;43.95;102590.00;5000096;28;113687;-69
2023/05/19 00:11:27;;;;;;;14.57;8.38;;;;;;;13.02;43.96;102598.88;5017206;28;125588;-70
2023/05/19 00:13:57;;;;;;;19.77;9.23;;;;;;;12.98;44.25;102591.91;5010607;28;122912;-70
2023/05/19 00:16:26;;;;;;;18.20;8.90;;;;;;;12.96;44.24;102596.41;5028703;28;115436;-69
2023/05/19 00:18:55;;;;;;;13.32;9.07;;;;;;;12.94;44.30;102587.59;5029699;28;115325;-69
2023/05/19 00:21:23;;;;;;;12.25;8.23;;;;;;;12.90;44.33;102596.53;5029239;28;123800;-70
2023/05/19 00:23:50;;;;;;;13.60;7.85;;;;;;;12.87;44.19;102593.97;5010519;28;123619;-69
2023/05/19 00:26:17;;;;;;;16.95;9.38;;;;;;;12.84;44.54;102586.06;5010987;28;113319;-70
2023/05/19 00:28:54;;;;;;;12.63;8.77;;;;;;;12.82;44.62;102587.91;5026307;28;114242;-69
2023/05/19 00:31:21;;;;;;;12.38;8.30;;;;;;;12.80;44.66;102581.75;5029087;28;124603;-70
2023/05/19 00:33:48;;;;;;;15.32;8.73;;;;;;;12.78;44.91;102586.25;5010094;28;122814;-69
2023/05/19 00:36:15;;;;;;;13.52;8.93;;;;;;;12.74;44.88;102580.13;5029239;28;113874;-69
2023/05/19 00:38:43;;;;;;;18.58;10.35;;;;;;;12.73;45.14;102585.47;5011336;28;114203;-69
2023/05/19 00:41:10;;;;;;;17.77;13.40;;;;;;;12.71;45.22;102582.00;5010688;28;123863;-69
2023/05/19 00:43:37;;;;;;;20.88;14.05;;;;;;;12.69;45.49;102578.50;5028613;28;123990;-69
2023/05/19 00:46:06;;;;;;;19.05;11.15;;;;;;;12.69;45.43;102575.84;4990993;28;112433;-70
2023/05/19 00:48:33;;;;;;;23.23;14.43;;;;;;;12.69;45.48;102570.53;5009104;28;114435;-70
2023/05/19 00:51:03;;;;;;;21.75;15.63;;;;;;;12.66;45.63;102566.19;4973816;28;126018;-70
2023/05/19 00:53:32;;;;;;;19.73;12.02;;;;;;;12.64;45.66;102558.22;4989966;28;122811;-69
2023/05/19 00:56:00;;;;;;;14.77;10.30;;;;;;;12.64;45.88;102558.22;5007757;28;114061;-69
2023/05/19 00:58:29;;;;;;;16.17;10.65;;;;;;;12.62;45.95;102560.06;4990716;28;113394;-70
2023/05/19 01:01:02;;;;;;;12.90;8.70;;;;;;;12.60;45.98;102561.88;5008302;28;124124;-69
2023/05/19 01:03:34;;;;;;;23.90;15.07;;;;;;;12.58;46.08;102562.81;5005606;28;124338;-70
2023/05/19 01:06:06;;;;;;;16.52;8.48;;;;;;;12.55;46.35;102553.16;5007260;28;115404;-70
2023/05/19 01:08:37;;;;;;;24.58;14.48;;;;;;;12.54;46.04;102551.41;4989563;28;114946;-70
2023/05/19 01:11:05;;;;;;;28.77;15.63;;;;;;;12.53;46.30;102560.28;5008094;28;124301;-69
2023/05/19 01:13:34;;;;;;;25.20;14.85;;;;;;;12.50;46.37;102557.72;5024702;28;124205;-70
2023/05/19 01:16:17;;;;;;;23.77;12.80;;;;;;;12.47;46.64;102568.44;5007309;28;113132;-70
2023/05/19 01:18:54;;;;;;;14.30;8.32;;;;;;;12.46;46.43;102574.66;5007647;28;114018;-70
2023/05/19 01:21:43;;;;;;;16.67;10.15;;;;;;;12.43;46.55;102569.41;5017007;28;124312;-69
2023/05/19 01:24:49;;;;;;;36.20;19.58;;;;;;;12.41;46.63;102573.88;4989985;28;124253;-70
2023/05/19 01:27:33;;;;;;;14.98;7.82;;;;;;;12.36;46.93;102565.19;4989898;28;113425;-69
2023/05/19 01:30:24;;;;;;;13.93;8.38;;;;;;;12.33;46.80;102567.91;4987887;28;114339;-70
2023/05/19 01:32:57;;;;;;;12.13;8.60;;;;;;;12.31;47.05;102569.72;4987562;28;124270;-69
2023/05/19 01:35:26;;;;;;;19.38;10.70;;;;;;;12.30;46.86;102567.97;5005891;28;125121;-70
2023/05/19 01:37:56;;;;;;;11.23;8.10;;;;;;;12.29;47.10;102566.22;5008246;28;114093;-69
2023/05/19 01:40:26;;;;;;;12.30;8.57;;;;;;;12.30;46.97;102573.28;5008481;28;114354;-69
2023/05/19 01:42:56;;;;;;;20.85;10.70;;;;;;;12.29;47.26;102576.84;4989361;28;123048;-70
2023/05/19 01:45:29;;;;;;;28.65;17.67;;;;;;;12.26;47.17;102573.38;5007401;28;124603;-70
2023/05/19 01:47:58;;;;;;;28.23;18.38;;;;;;;12.24;47.38;102575.19;5006782;28;114159;-70
2023/05/19 01:50:26;;;;;;;16.17;7.93;;;;;;;12.23;47.37;102568.13;5008682;28;113888;-70
2023/05/19 01:52:54;;;;;;;14.35;9.30;;;;;;;12.22;47.36;102571.69;5008060;28;124793;-70
2023/05/19 01:55:24;;;;;;;10.77;7.28;;;;;;;12.20;47.57;102573.50;4988843;28;123513;-70
2023/05/19 01:58:06;;;;;;;11.73;7.05;;;;;;;12.19;47.56;102565.59;5007738;28;115926;-70
2023/05/19 02:00:48;;;;;;;13.88;7.03;;;;;;;12.16;47.62;102566.50;4989890;28;114566;-70
2023/05/19 02:03:31;;;;;;;15.38;7.80;;;;;;;12.15;47.92;102559.47;4973572;28;123367;-70
2023/05/19 02:06:16;;;;;;;14.70;8.32;;;;;;;12.14;47.83;102563.03;5007104;28;123680;-70
2023/05/19 02:08:57;;;;;;;13.73;7.63;;;;;;;12.11;47.87;102563.13;5010096;28;114375;-70
2023/05/19 02:11:36;;;;;;;18.25;11.93;;;;;;;12.09;47.97;102562.25;5010670;28;113139;-70
2023/05/19 02:14:18;;;;;;;31.92;24.27;;;;;;;12.06;48.22;102560.56;5010596;28;124318;-70
2023/05/19 02:16:47;;;;;;;28.65;22.83;;;;;;;12.06;48.23;102554.38;4992666;28;123804;-70
2023/05/19 02:19:23;;;;;;;29.08;17.77;;;;;;;12.04;48.29;102550.88;4992769;28;113466;-70
2023/05/19 02:21:51;;;;;;;22.98;11.88;;;;;;;12.04;47.94;102549.09;4993366;28;113131;-70
2023/05/19 02:24:21;;;;;;;16.30;10.75;;;;;;;12.03;48.25;102549.13;5010653;28;125276;-69
2023/05/19 02:26:50;;;;;;;29.77;19.13;;;;;;;12.01;48.42;102545.63;4992795;28;124374;-69
2023/05/19 02:29:19;;;;;;;23.65;16.17;;;;;;;11.99;48.61;102547.47;4983357;28;114014;-69
2023/05/19 02:31:47;;;;;;;23.38;16.17;;;;;;;11.97;48.50;102549.28;5006759;28;112413;-69
2023/05/19 02:34:14;;;;;;;15.68;9.90;;;;;;;11.96;48.63;102552.81;5010897;28;124450;-70
2023/05/19 02:36:44;;;;;;;12.85;8.63;;;;;;;11.96;48.88;102552.81;5003977;28;124665;-70
2023/05/19 02:39:11;;;;;;;21.30;14.75;;;;;;;11.94;48.70;102538.72;5012603;28;114423;-69
2023/05/19 02:41:38;;;;;;;15.20;9.15;;;;;;;11.93;48.89;102552.91;5026428;28;112850;-70
2023/05/19 02:44:06;;;;;;;19.40;12.82;;;;;;;11.92;48.80;102536.09;4992026;28;123410;-69
2023/05/19 02:46:33;;;;;;;14.30;8.48;;;;;;;11.91;48.94;102538.81;4992180;28;123281;-70
2023/05/19 02:49:00;;;;;;;12.02;6.97;;;;;;;11.90;49.25;102531.75;4992451;28;114239;-70
2023/05/19 02:51:28;;;;;;;17.98;7.13;;;;;;;11.88;49.22;102529.97;4993500;28;115246;-69
2023/05/19 02:53:55;;;;;;;12.90;6.72;;;;;;;11.88;49.30;102539.69;4992491;28;123026;-69
2023/05/19 02:56:22;;;;;;;14.80;6.63;;;;;;;11.85;49.16;102535.34;5008541;28;124894;-69
2023/05/19 02:58:49;;;;;;;11.73;6.40;;;;;;;11.85;49.23;102539.78;5010973;28;115415;-69
2023/05/19 03:01:17;;;;;;;12.30;7.28;;;;;;;11.82;49.65;102530.09;4992597;28;113825;-69
2023/05/19 03:03:44;;;;;;;14.43;7.53;;;;;;;11.80;49.50;102523.94;5010393;28;123911;-69
2023/05/19 03:06:12;;;;;;;11.32;6.85;;;;;;;11.78;49.47;102539.03;5010740;28;123724;-70
2023/05/19 03:08:39;;;;;;;12.13;6.82;;;;;;;11.76;49.58;102535.56;4976791;28;113478;-70
2023/05/19 03:11:08;;;;;;;14.35;7.18;;;;;;;11.75;49.60;102532.94;4992124;28;112976;-70
2023/05/19 03:13:35;;;;;;;13.95;6.65;;;;;;;11.72;49.75;102523.25;5009231;28;124627;-70
2023/05/19 03:16:03;;;;;;;11.20;6.80;;;;;;;11.71;49.92;102526.81;5010098;28;123655;-70
2023/05/19 03:18:30;;;;;;;12.85;6.75;;;;;;;11.69;49.89;102534.81;4990630;28;112848;-69
2023/05/19 03:20:57;;;;;;;11.52;6.05;;;;;;;11.67;50.05;102530.44;4992467;28;113269;-70
2023/05/19 03:23:25;;;;;;;15.68;6.95;;;;;;;11.65;50.04;102526.97;4991595;28;124270;-70
2023/05/19 03:25:54;;;;;;;11.50;6.72;;;;;;;11.64;50.09;102535.81;5010186;28;123713;-70
2023/05/19 03:28:22;;;;;;;13.63;7.10;;;;;;;11.62;50.06;102532.31;4992025;28;114084;-70
2023/05/19 03:30:49;;;;;;;14.88;7.03;;;;;;;11.60;50.15;102534.16;4991544;28;112922;-70
2023/05/19 03:33:19;;;;;;;14.55;6.65;;;;;;;11.60;50.18;102539.44;4990259;28;123962;-70
2023/05/19 03:35:47;;;;;;;14.48;6.90;;;;;;;11.59;50.43;102537.72;5007521;28;124884;-70
2023/05/19 03:38:15;;;;;;;16.80;7.18;;;;;;;11.59;50.49;102537.72;4990607;28;116808;-70
2023/05/19 03:40:49;;;;;;;12.43;6.68;;;;;;;11.58;50.50;102535.97;4991132;28;114864;-69
2023/05/19 03:43:16;;;;;;;11.57;6.65;;;;;;;11.58;50.42;102544.78;4991926;28;123344;-69
2023/05/19 03:45:48;;;;;;;12.32;6.15;;;;;;;11.59;50.59;102545.69;5022866;28;123458;-70
2023/05/19 03:48:40;;;;;;;14.13;6.50;;;;;;;11.58;50.53;102549.22;5001520;28;114864;-70
2023/05/19 03:51:27;;;;;;;10.35;6.00;;;;;;;11.58;50.57;102551.88;5011112;28;114753;-70
2023/05/19 03:53:57;;;;;;;11.45;6.65;;;;;;;11.58;50.56;102551.88;5024144;27;123297;-69
2023/05/19 03:56:26;;;;;;;10.90;6.57;;;;;;;11.57;50.84;102550.16;5003425;28;122911;-69
2023/05/19 03:58:54;;;;;;;13.57;6.47;;;;;;;11.56;50.92;102559.88;4991621;28;112966;-70
2023/05/19 04:01:21;;;;;;;13.02;7.07;;;;;;;11.55;50.97;102557.28;4991455;28;112665;-70
2023/05/19 04:03:48;;;;;;;10.93;6.05;;;;;;;11.55;51.12;102554.63;4990324;28;123359;-70
2023/05/19 04:06:16;;;;;;;12.68;6.80;;;;;;;11.53;51.26;102565.25;5009320;28;123346;-70
2023/05/19 04:08:43;;;;;;;13.25;7.15;;;;;;;11.52;51.21;102562.63;4991144;28;113229;-70
2023/05/19 04:11:12;;;;;;;12.75;6.43;;;;;;;11.52;51.39;102567.94;4991122;28;113103;-70
2023/05/19 04:13:39;;;;;;;16.38;6.28;;;;;;;11.52;51.48;102563.50;5008871;28;123973;-69
2023/05/19 04:16:06;;;;;;;12.20;5.85;;;;;;;11.53;51.38;102564.38;4991523;28;123948;-70
2023/05/19 04:18:33;;;;;;;11.68;6.00;;;;;;;11.53;51.53;102567.91;4991375;28;113685;-70
2023/05/19 04:21:00;;;;;;;15.40;6.55;;;;;;;11.54;51.45;102566.13;4991006;28;113615;-70
2023/05/19 04:23:27;;;;;;;10.27;6.43;;;;;;;11.54;51.61;102564.34;5008994;28;123556;-69
2023/05/19 04:25:56;;;;;;;11.35;6.35;;;;;;;11.56;51.72;102564.31;5008863;28;123866;-70
2023/05/19 04:28:24;;;;;;;14.02;6.13;;;;;;;11.57;51.70;102563.41;4974245;28;114643;-70
2023/05/19 04:30:51;;;;;;;14.95;6.28;;;;;;;11.58;51.59;102563.38;4991434;28;115563;-70
2023/05/19 04:33:18;;;;;;;13.00;6.32;;;;;;;11.61;51.61;102557.13;4974763;28;123144;-69
2023/05/19 04:35:46;;;;;;;16.60;6.57;;;;;;;11.62;51.72;102553.56;4990381;28;124892;-69
2023/05/19 04:38:17;;;;;;;9.23;5.97;;;;;;;11.63;51.69;102556.19;4990836;28;114586;-69
2023/05/19 04:40:48;;;;;;;12.55;6.22;;;;;;;11.64;51.77;102554.41;4990367;28;114640;-69
2023/05/19 04:43:16;;;;;;;10.75;6.07;;;;;;;11.67;51.78;102562.31;4990924;28;124095;-70
2023/05/19 04:45:45;;;;;;;9.02;6.05;;;;;;;11.76;52.26;102556.78;4990124;28;123071;-70
2023/05/19 04:48:12;;;;;;;10.32;5.82;;;;;;;11.84;52.42;102552.16;4990568;28;113707;-70
2023/05/19 04:50:41;;;;;;;14.25;6.75;;;;;;;11.93;52.55;102558.22;4975516;28;113194;-70
2023/05/19 04:53:08;;;;;;;13.85;6.45;;;;;;;11.99;52.26;102558.06;4991039;28;123845;-70
2023/05/19 04:55:37;;;;;;;15.70;6.72;;;;;;;12.04;52.20;102561.50;5007755;28;124175;-70
2023/05/19 04:58:05;;;;;;;10.93;6.53;;;;;;;12.04;51.93;102558.84;4975382;28;113250;-69
2023/05/19 05:00:34;;;;;;;14.20;6.57;;;;;;;12.06;51.86;102559.69;4996047;28;113702;-69
2023/05/19 05:03:05;;;;;;;18.92;6.35;;;;;;;12.05;52.00;102557.94;5003734;28;123170;-71
2023/05/19 05:05:33;;;;;;;11.98;5.88;;;;;;;12.07;51.90;102556.09;4990736;28;124376;-70
2023/05/19 05:08:00;;;;;;;10.95;6.05;;;;;;;12.09;51.84;102554.28;5009232;28;114324;-70
2023/05/19 05:10:31;;;;;;;11.27;6.13;;;;;;;12.10;52.25;102561.34;4991679;28;113212;-70
2023/05/19 05:12:59;;;;;;;11.80;6.18;;;;;;;12.12;52.07;102559.53;5008983;28;124439;-70
2023/05/19 05:15:28;;;;;;;13.05;6.07;;;;;;;12.14;52.24;102552.41;5007737;28;123904;-70
2023/05/19 05:17:58;;;;;;;11.18;6.30;;;;;;;12.17;52.15;102557.66;4989878;28;114382;-69
2023/05/19 05:20:25;;;;;;;14.48;6.95;;;;;;;12.20;52.26;102552.25;4991352;28;113780;-70
2023/05/19 05:22:53;;;;;;;11.70;6.38;;;;;;;12.24;52.04;102553.94;4974424;28;123264;-70
2023/05/19 05:25:21;;;;;;;16.30;6.88;;;;;;;12.28;52.24;102557.34;4989365;28;123632;-70
2023/05/19 05:27:50;;;;;;;13.20;6.07;;;;;;;12.31;52.32;102559.09;5023292;27;113451;-69
2023/05/19 05:30:17;;;;;;;11.93;6.55;;;;;;;12.35;52.35;102555.44;4990862;28;113041;-70
2023/05/19 05:32:45;;;;;;;10.38;6.10;;;;;;;12.39;52.23;102557.09;4990424;28;123029;-70
2023/05/19 05:35:27;;;;;;;12.30;6.70;;;;;;;12.45;52.28;102567.56;4990182;28;123494;-70
2023/05/19 05:37:55;;;;;;;12.57;6.82;;;;;;;12.49;52.46;102558.63;4990647;28;113477;-70
2023/05/19 05:40:22;;;;;;;14.10;6.78;;;;;;;12.54;52.44;102562.03;4990269;28;113154;-69
2023/05/19 05:42:49;;;;;;;12.45;6.82;;;;;;;12.60;52.44;102567.22;4997502;28;124645;-70
2023/05/19 05:45:19;;;;;;;13.80;7.03;;;;;;;12.69;52.39;102570.53;4993149;28;123508;-70
2023/05/19 05:47:47;;;;;;;13.35;6.70;;;;;;;12.76;52.42;102561.47;4993628;28;113240;-69
2023/05/19 05:50:15;;;;;;;13.50;6.78;;;;;;;12.84;52.57;102564.81;4993685;28;113335;-70
2023/05/19 05:52:45;;;;;;;14.43;6.88;;;;;;;12.92;52.52;102562.81;4992945;28;123335;-70
2023/05/19 05:55:16;;;;;;;16.17;7.03;;;;;;;13.01;52.30;102567.00;4979337;28;123216;-70
2023/05/19 05:57:43;;;;;;;12.93;6.90;;;;;;;13.10;52.25;102560.56;4993698;28;114055;-70
2023/05/19 06:00:14;;;;;;;15.93;6.90;;;;;;;13.18;52.27;102553.22;5012347;28;113948;-70
2023/05/19 06:02:48;;;;;;;12.35;6.55;;;;;;;13.26;52.21;102559.22;4993898;28;123646;-70
2023/05/19 06:05:16;;;;;;;14.45;6.53;;;;;;;13.36;51.97;102558.06;4992158;28;123621;-70
2023/05/19 06:07:45;;;;;;;16.52;7.38;;;;;;;13.48;52.12;102558.59;4992845;28;114305;-70
2023/05/19 06:10:18;;;;;;;15.07;7.22;;;;;;;13.61;52.04;102557.31;4993269;28;114996;-70
2023/05/19 06:12:46;;;;;;;14.00;5.90;;;;;;;13.76;51.98;102553.31;4992600;28;123455;-70
2023/05/19 06:15:14;;;;;;;10.35;5.90;;;;;;;13.89;51.82;102559.16;4992308;28;123192;-70
2023/05/19 06:17:49;;;;;;;10.80;6.50;;;;;;;14.03;51.85;102548.91;5006752;28;113356;-69
2023/05/19 06:20:16;;;;;;;10.25;6.22;;;;;;;14.17;51.78;102554.66;5014142;28;114438;-70
2023/05/19 06:22:44;;;;;;;11.45;6.50;;;;;;;14.28;51.47;102553.44;4993016;28;123258;-70
2023/05/19 06:25:12;;;;;;;14.30;6.38;;;;;;;14.34;51.27;102558.56;4976230;28;123493;-70
2023/05/19 06:27:41;;;;;;;10.88;6.30;;;;;;;14.38;50.89;102563.75;4992531;28;113821;-70
2023/05/19 06:30:08;;;;;;;11.90;6.88;;;;;;;14.42;50.87;102561.84;4993096;28;113332;-70
2023/05/19 06:32:48;;;;;;;13.13;6.28;;;;;;;14.46;50.77;102563.47;4980486;28;125598;-70
2023/05/19 06:35:15;;;;;;;12.60;6.55;;;;;;;14.50;50.68;102564.25;4992433;28;123233;-70
2023/05/19 06:37:43;;;;;;;10.18;6.30;;;;;;;14.54;50.76;102561.44;4993677;28;114268;-69
2023/05/19 06:40:11;;;;;;;11.45;6.63;;;;;;;14.60;50.65;102561.25;4992327;28;113267;-70
2023/05/19 06:42:40;;;;;;;15.18;6.50;;;;;;;14.71;50.62;102552.91;4992122;28;123526;-70
2023/05/19 06:45:15;;;;;;;13.10;6.10;;;;;;;14.82;50.43;102552.50;4976303;28;123111;-70
2023/05/19 06:47:43;;;;;;;10.68;6.22;;;;;;;14.93;50.61;102558.31;4992612;28;113858;-70
2023/05/19 06:50:11;;;;;;;11.68;6.30;;;;;;;15.09;50.54;102553.31;5011103;28;115337;-70
2023/05/19 06:52:41;;;;;;;12.07;6.38;;;;;;;15.32;50.67;102565.81;5023855;27;123537;-70
2023/05/19 06:55:08;;;;;;;9.90;5.50;;;;;;;15.52;50.33;102561.50;4991464;28;122151;-70
2023/05/19 06:57:37;;;;;;;10.07;5.57;;;;;;;15.68;49.85;102562.66;5024801;27;115417;-70
2023/05/19 07:00:10;;;;;;;11.20;5.93;;;;;;;15.86;49.80;102560.22;4992520;28;114720;-70
2023/05/19 07:02:38;;;;;;;10.32;5.13;;;;;;;16.02;49.34;102561.34;4976228;28;124254;-70
2023/05/19 07:05:07;;;;;;;10.52;5.47;;;;;;;16.17;49.04;102556.31;4991475;28;123307;-70
2023/05/19 07:07:34;;;;;;;10.82;5.03;;;;;;;16.32;49.06;102553.00;5009400;28;113330;-70
2023/05/19 07:10:03;;;;;;;13.55;5.40;;;;;;;16.49;48.83;102549.63;4991856;28;114582;-70
2023/05/19 07:12:31;;;;;;;13.45;5.38;;;;;;;16.63;48.31;102554.38;5008888;28;123653;-70
2023/05/19 07:14:59;;;;;;;8.55;5.20;;;;;;;16.72;48.26;102556.66;4991071;28;123011;-70
2023/05/19 07:17:27;;;;;;;12.63;5.22;;;;;;;16.84;47.98;102556.16;4992159;28;113779;-70
2023/05/19 07:19:54;;;;;;;9.65;4.90;;;;;;;17.00;47.90;102555.47;5010466;28;113945;-70
2023/05/19 07:22:22;;;;;;;10.88;4.80;;;;;;;17.16;47.78;102552.94;5009586;28;124300;-70
2023/05/19 07:24:50;;;;;;;9.45;4.20;;;;;;;17.30;47.10;102547.84;4991301;28;123055;-70
2023/05/19 07:27:17;;;;;;;9.57;3.92;;;;;;;17.41;46.59;102555.41;4991917;28;113911;-70
2023/05/19 07:29:45;;;;;;;9.57;4.13;;;;;;;17.52;46.51;102547.72;5011024;28;114264;-70
2023/05/19 07:32:12;;;;;;;9.40;4.00;;;;;;;17.67;46.18;102552.34;5010794;28;123957;-70
2023/05/19 07:34:39;;;;;;;6.80;3.60;;;;;;;17.79;45.79;102552.69;5023005;28;124846;-71
2023/05/19 07:37:07;;;;;;;6.20;3.55;;;;;;;17.91;45.88;102554.81;5010340;28;114421;-70
2023/05/19 07:39:35;;;;;;;12.02;3.72;;;;;;;18.05;45.56;102555.00;5010614;28;113317;-70
2023/05/19 07:42:02;;;;;;;8.50;3.63;;;;;;;18.19;45.29;102548.09;4992055;28;124326;-70
2023/05/19 07:44:33;;;;;;;6.57;3.53;;;;;;;18.30;45.03;102551.09;4991449;28;123806;-70
2023/05/19 07:47:00;;;;;;;7.28;3.33;;;;;;;18.41;44.73;102548.75;4991590;28;115329;-70
2023/05/19 07:49:28;;;;;;;5.88;3.00;;;;;;;18.49;44.32;102546.53;4991446;28;113917;-70
2023/05/19 07:51:55;;;;;;;8.57;3.55;;;;;;;18.62;44.02;102540.53;5009738;28;123915;-70
2023/05/19 07:54:23;;;;;;;8.57;3.70;;;;;;;18.72;43.56;102540.94;5009351;28;123871;-70
2023/05/19 07:56:50;;;;;;;8.20;3.20;;;;;;;18.77;43.30;102545.09;5008742;28;114027;-70
2023/05/19 07:59:18;;;;;;;8.98;3.10;;;;;;;18.81;43.35;102541.34;5010303;28;114004;-70
2023/05/19 08:01:46;;;;;;;8.52;3.10;;;;;;;18.89;42.62;102543.63;4991228;28;123864;-70
2023/05/19 08:04:13;;;;;;;7.57;2.95;;;;;;;18.99;42.73;102544.03;5009328;28;123868;-70
2023/05/19 08:06:41;;;;;;;9.13;3.20;;;;;;;19.10;42.87;102536.25;5009524;28;114638;-70
2023/05/19 08:09:09;;;;;;;6.97;3.10;;;;;;;19.23;42.46;102531.94;5009390;28;114108;-70
2023/05/19 08:11:36;;;;;;;5.38;2.70;;;;;;;19.38;42.52;102534.72;5008621;28;124973;-70
2023/05/19 08:14:03;;;;;;;8.38;3.03;;;;;;;19.51;41.95;102529.53;4973868;28;124990;-70
2023/05/19 08:16:30;;;;;;;7.30;2.88;;;;;;;19.59;41.47;102528.16;4990060;28;113516;-70
2023/05/19 08:19:01;;;;;;;5.85;2.85;;;;;;;19.65;41.54;102527.81;4993254;28;112772;-70
2023/05/19 08:21:28;;;;;;;8.32;2.97;;;;;;;19.76;41.45;102529.03;4991516;28;124267;-70
2023/05/19 08:23:55;;;;;;;9.95;3.60;;;;;;;19.84;41.28;102518.72;5008910;28;123878;-70
2023/05/19 08:26:23;;;;;;;10.55;3.17;;;;;;;19.91;40.89;102517.44;5009905;28;114207;-70
2023/05/19 08:28:50;;;;;;;9.07;2.70;;;;;;;20.00;40.50;102519.59;5006613;28;112774;-70
2023/05/19 08:31:17;;;;;;;8.18;2.78;;;;;;;20.10;40.79;102510.94;5008933;28;124374;-70
2023/05/19 08:33:44;;;;;;;8.23;2.72;;;;;;;20.23;40.72;102509.28;5008458;28;124887;-70
2023/05/19 08:36:12;;;;;;;6.43;3.10;;;;;;;20.36;40.63;102504.91;4989620;28;114855;-70
2023/05/19 08:38:39;;;;;;;5.97;2.30;;;;;;;20.49;39.68;102506.84;5009171;28;114790;-70
2023/05/19 08:41:06;;;;;;;6.13;2.53;;;;;;;20.58;39.33;102503.59;5008868;28;125004;-70
2023/05/19 08:43:33;;;;;;;8.65;2.85;;;;;;;20.66;39.21;102498.63;5008891;28;124540;-70
2023/05/19 08:46:02;;;;;;;9.38;2.53;;;;;;;20.76;39.15;102493.56;5009798;28;114344;-70
2023/05/19 08:48:30;;;;;;;6.35;2.22;;;;;;;20.85;38.92;102486.72;5023046;28;113880;-70
2023/05/19 08:51:15;;;;;;;7.72;3.00;;;;;;;20.92;38.20;102485.38;4990708;28;124428;-70
2023/05/19 08:53:47;;;;;;;;;;;;;;;20.92;39.20;102488.09;4999011;28;122831;-70
2023/05/19 08:56:16;;;;;;;7.03;2.63;;;;;;;20.97;38.45;102483.28;5014330;28;114315;-70
2023/05/19 08:58:45;;;;;;;6.05;2.90;;;;;;;21.02;38.20;102478.47;4974718;28;114214;-70
2023/05/19 09:01:15;;;;;;;5.53;2.65;;;;;;;21.09;38.41;102485.19;4990458;28;122812;-70
2023/05/19 09:03:44;;;;;;;6.82;2.90;;;;;;;21.17;38.21;102488.28;5024206;27;124134;-70
2023/05/19 09:06:12;;;;;;;8.45;3.53;;;;;;;21.28;38.54;102484.00;4991093;28;114345;-70
2023/05/19 09:08:41;;;;;;;6.85;2.90;;;;;;;21.41;38.37;102479.56;4990035;28;113394;-70
2023/05/19 09:11:09;;;;;;;6.57;3.20;;;;;;;21.49;37.94;102471.88;5008146;28;123966;-70
2023/05/19 09:13:36;;;;;;;7.82;3.60;;;;;;;21.48;37.77;102480.94;5008101;28;123886;-70
2023/05/19 09:16:04;;;;;;;8.60;3.22;;;;;;;21.42;37.38;102473.22;5007817;28;114749;-72
2023/05/19 09:18:31;;;;;;;7.18;3.20;;;;;;;21.39;37.50;102476.09;5009079;28;114267;-70
2023/05/19 09:21:01;;;;;;;9.15;2.60;;;;;;;21.37;37.45;102472.63;5008673;28;123848;-71
2023/05/19 09:23:32;;;;;;;6.03;2.38;;;;;;;21.35;36.36;102469.19;5008292;28;123956;-70
2023/05/19 09:26:06;;;;;;;6.00;1.95;;;;;;;21.36;36.23;102465.50;5008052;28;115179;-70
2023/05/19 09:28:36;;;;;;;4.87;2.23;;;;;;;21.45;36.53;102459.53;5005572;28;114564;-70
2023/05/19 09:31:07;;;;;;;5.57;2.13;;;;;;;21.52;35.62;102465.41;4990356;28;123276;-70
2023/05/19 09:33:38;;;;;;;6.65;1.80;;;;;;;21.51;34.77;102459.16;5007914;28;123889;-70
2023/05/19 09:36:09;;;;;;;7.38;1.80;;;;;;;21.51;35.12;102453.78;5007382;28;114441;-70
2023/05/19 09:38:38;;;;;;;4.95;1.70;;;;;;;21.54;35.00;102453.56;5008906;28;114045;-70
2023/05/19 09:41:30;;;;;;;9.20;1.80;;;;;;;21.57;34.62;102442.56;5010028;28;124166;-70
2023/05/19 09:43:58;;;;;;;10.52;2.38;;;;;;;21.60;34.60;102446.03;5009947;28;123804;-70
2023/05/19 09:46:27;;;;;;;5.45;1.70;;;;;;;21.64;33.94;102452.94;5009193;28;114124;-70
2023/05/19 09:48:57;;;;;;;5.68;1.60;;;;;;;21.64;33.28;102443.00;5009289;28;113752;-70
2023/05/19 09:51:25;;;;;;;5.45;1.60;;;;;;;21.65;33.66;102443.91;4991320;28;123470;-70
2023/05/19 09:53:52;;;;;;;7.07;1.75;;;;;;;21.70;33.79;102444.44;5023722;28;122885;-70
2023/05/19 09:56:22;;;;;;;5.93;1.70;;;;;;;21.75;34.04;102445.88;4999011;28;114050;-70
2023/05/19 09:58:51;;;;;;;6.15;2.15;;;;;;;21.83;33.89;102448.06;5010010;28;114031;-70
2023/05/19 10:01:18;;;;;;;5.82;2.25;;;;;;;21.85;33.20;102454.22;5016174;28;124054;-70
2023/05/19 10:03:46;;;;;;;6.55;2.30;;;;;;;21.82;32.76;102443.63;5023263;28;123806;-70
2023/05/19 10:06:14;;;;;;;8.85;2.35;;;;;;;21.75;32.68;102450.41;4990576;28;114414;-70
2023/05/19 10:08:42;;;;;;;10.27;2.13;;;;;;;21.70;33.17;102452.53;5008642;28;114163;-70
2023/05/19 10:11:10;;;;;;;3.17;1.60;;;;;;;21.76;33.95;102446.75;5007423;28;124056;-70
2023/05/19 10:13:38;;;;;;;6.95;2.08;;;;;;;21.87;33.97;102452.28;4990009;28;123833;-70
2023/05/19 10:16:07;;;;;;;6.13;2.05;;;;;;;21.95;33.29;102458.00;5007691;28;115548;-70
2023/05/19 10:18:35;;;;;;;5.15;1.80;;;;;;;21.96;33.44;102448.97;4989607;28;114090;-70
2023/05/19 10:21:06;;;;;;;6.60;1.92;;;;;;;22.02;33.08;102441.41;4990517;28;123924;-70
2023/05/19 10:23:33;;;;;;;6.60;1.98;;;;;;;22.05;33.78;102441.22;5007132;28;124039;-70
2023/05/19 10:26:05;;;;;;;5.50;2.13;;;;;;;22.14;33.67;102441.44;4989442;28;113611;-71
2023/05/19 10:28:38;;;;;;;7.65;2.15;;;;;;;22.20;33.55;102434.75;4991172;28;114028;-70
2023/05/19 10:31:10;;;;;;;4.75;1.75;;;;;;;22.27;33.05;102436.09;5011064;28;125066;-70
2023/05/19 10:33:58;;;;;;;4.70;1.98;;;;;;;22.31;33.13;102431.34;5008192;28;125358;-70
2023/05/19 10:36:48;;;;;;;7.28;2.10;;;;;;;22.38;33.22;102420.97;5010519;28;114590;-70
2023/05/19 10:39:26;;;;;;;7.07;2.20;;;;;;;22.42;32.59;102422.50;5008472;28;113112;-70
2023/05/19 10:42:07;;;;;;;5.90;2.40;;;;;;;22.47;32.58;102425.72;5009767;28;123892;-70
2023/05/19 10:45:12;;;;;;;4.78;2.38;;;;;;;22.52;32.88;102412.78;5010904;28;123208;-70
2023/05/19 10:47:40;;;;;;;8.93;2.45;;;;;;;22.60;33.02;102413.06;5009811;28;114103;-69
2023/05/19 10:50:08;;;;;;;8.57;2.30;;;;;;;22.74;32.54;102415.66;5011330;28;113457;-70
2023/05/19 10:52:37;;;;;;;6.53;2.15;;;;;;;22.84;33.08;102406.91;4992554;28;121934;-70
2023/05/19 10:55:16;;;;;;;8.95;2.40;;;;;;;22.95;33.03;102409.69;5010179;28;123160;-70
2023/05/19 10:57:55;;;;;;;7.00;2.17;;;;;;;23.02;32.94;102408.28;5009405;28;114232;-70
2023/05/19 11:00:26;;;;;;;7.90;2.40;;;;;;;23.10;32.48;102408.59;5011340;28;114236;-70
2023/05/19 11:03:12;;;;;;;5.45;2.35;;;;;;;23.16;32.90;102401.03;5010889;28;123752;-70
2023/05/19 11:05:39;;;;;;;;;;;;;;;23.21;33.60;102399.69;5008962;28;124137;-70
2023/05/19 11:08:07;;;;;;;5.03;1.83;;;;;;;23.32;32.92;102407.88;4992527;28;113823;-70
2023/05/19 11:10:34;;;;;;;5.85;2.08;;;;;;;23.37;31.96;102410.22;5010998;28;115284;-70
2023/05/19 11:13:03;;;;;;;6.43;2.20;;;;;;;23.32;31.98;102407.88;4992772;28;124001;-70
2023/05/19 11:15:38;;;;;;;9.48;2.00;;;;;;;23.30;31.48;102419.75;5008599;28;123719;-70
2023/05/19 11:18:06;;;;;;;6.38;2.20;;;;;;;23.29;31.66;102408.09;5023453;28;114207;-70
2023/05/19 11:20:37;;;;;;;6.20;1.98;;;;;;;23.33;31.55;102403.31;5010759;28;114537;-70
2023/05/19 11:23:18;;;;;;;8.38;2.10;;;;;;;23.30;31.55;102400.84;4992171;28;122976;-70
2023/05/19 11:25:47;;;;;;;4.65;1.85;;;;;;;23.27;31.47;102398.38;5010269;28;124045;-70